Time;durP1;ratioP1;P1;durP2;ratioP2;P2;SDS_P1;SDS_P2;PMS_P1;PMS_P2;Temp;Humidity;BMP_temperature;BMP_pressure;BME280_temperature;BME280_humidity;BME280_pressure;Samples;Min_cycle;Max_cycle;Signal;HPM_P1;HPM_P2
2022/12/30 00:00:53;;;;;;;8.60;3.03;;;9.00;99.90;;;;;;5051428;28;20309;-45
2022/12/30 00:03:39;;;;;;;7.38;3.10;;;9.00;99.90;;;;;;5051428;28;20025;-44
2022/12/30 00:06:25;;;;;;;5.55;3.25;;;8.90;99.90;;;;;;5051123;28;20021;-46
2022/12/30 00:09:11;;;;;;;7.97;2.80;;;8.90;99.90;;;;;;5050505;28;20139;-43
2022/12/30 00:33:06;;;;;;;7.68;3.20;;;8.80;99.90;;;;;;5050026;28;20488;-47
2022/12/30 00:33:50;;;;;;;9.50;3.17;;;8.90;99.90;;;;;;5054867;28;20112;-46
2022/12/30 00:36:37;;;;;;;9.55;3.28;;;8.90;99.90;;;;;;5054620;28;20021;-45
2022/12/30 00:39:23;;;;;;;5.82;2.90;;;8.80;99.90;;;;;;5054483;28;20485;-45
2022/12/30 00:45:14;;;;;;;8.82;2.72;;;8.70;99.90;;;;;;5054561;28;20017;-47
2022/12/30 00:48:00;;;;;;;9.40;2.95;;;8.80;99.90;;;;;;5054384;28;20021;-51
2022/12/30 00:56:55;;;;;;;10.00;3.13;;;8.90;99.90;;;;;;5054072;28;20029;-44
2022/12/30 00:59:41;;;;;;;10.35;3.67;;;8.80;99.90;;;;;;5052542;28;20422;-48
2022/12/30 01:02:27;;;;;;;8.80;3.58;;;8.70;99.90;;;;;;5054313;28;20033;-46
2022/12/30 01:05:13;;;;;;;12.45;3.40;;;8.80;99.90;;;;;;5054321;28;20021;-45
2022/12/30 01:07:58;;;;;;;14.25;3.55;;;8.80;99.90;;;;;;5054055;28;20455;-45
2022/12/30 01:10:44;;;;;;;7.85;3.10;;;8.70;99.90;;;;;;5054171;28;20452;-45
2022/12/30 01:13:30;;;;;;;8.48;2.92;;;8.70;99.90;;;;;;5054007;28;20511;-47
2022/12/30 01:16:17;;;;;;;8.57;3.45;;;8.70;99.90;;;;;;5053317;28;20024;-53
2022/12/30 01:19:03;;;;;;;10.32;2.80;;;8.70;99.90;;;;;;5053992;28;20108;-44
2022/12/30 01:21:49;;;;;;;8.93;2.88;;;8.60;99.90;;;;;;5054327;28;20040;-48
2022/12/30 01:24:36;;;;;;;8.32;4.18;;;8.60;99.90;;;;;;5053650;28;20043;-46
2022/12/30 01:27:21;;;;;;;7.07;3.20;;;8.70;99.90;;;;;;5053532;28;20025;-46
2022/12/30 01:30:08;;;;;;;8.27;4.10;;;8.50;99.90;;;;;;5053558;28;20029;-45
2022/12/30 01:32:54;;;;;;;9.60;3.30;;;8.60;99.90;;;;;;5051485;28;20055;-45
2022/12/30 01:35:40;;;;;;;12.10;3.70;;;8.50;99.90;;;;;;5053489;28;20029;-46
2022/12/30 01:38:28;;;;;;;7.75;3.33;;;8.40;99.90;;;;;;5053272;28;20079;-44
2022/12/30 01:41:14;;;;;;;9.23;3.53;;;8.50;99.90;;;;;;5053293;28;20110;-45
2022/12/30 01:44:00;;;;;;;10.45;3.38;;;8.40;99.90;;;;;;5053931;28;20516;-47
2022/12/30 01:46:46;;;;;;;10.60;3.53;;;8.50;99.90;;;;;;5053241;28;20028;-48
2022/12/30 01:49:35;;;;;;;10.68;3.35;;;8.50;99.90;;;;;;5053166;28;20400;-45
2022/12/30 01:52:25;;;;;;;7.57;2.97;;;8.50;99.90;;;;;;5053121;28;20025;-47
2022/12/30 01:55:19;;;;;;;14.35;3.53;;;8.50;99.90;;;;;;5053321;28;20029;-47
2022/12/30 01:58:10;;;;;;;13.50;4.10;;;8.60;99.90;;;;;;5051832;28;20021;-45
2022/12/30 02:00:56;;;;;;;10.10;3.35;;;8.60;99.90;;;;;;5052096;28;20520;-45
2022/12/30 02:03:45;;;;;;;9.73;3.13;;;8.60;99.90;;;;;;5053097;28;20021;-44
2022/12/30 02:06:42;;;;;;;7.15;3.45;;;8.50;99.90;;;;;;5052759;28;20055;-53
2022/12/30 02:09:30;;;;;;;8.40;3.42;;;8.50;99.90;;;;;;5052991;28;20024;-47
2022/12/30 02:12:16;;;;;;;8.25;3.50;;;8.60;99.90;;;;;;5052732;28;20035;-51
2022/12/30 02:15:03;;;;;;;10.35;3.28;;;8.50;99.90;;;;;;5052754;28;20033;-50
2022/12/30 02:18:13;;;;;;;7.20;3.20;;;8.60;99.90;;;;;;5050808;28;20082;-45
2022/12/30 02:21:08;;;;;;;8.43;3.40;;;8.60;99.90;;;;;;5052711;28;20025;-45
2022/12/30 02:24:02;;;;;;;10.90;3.65;;;8.60;99.90;;;;;;5052540;28;20017;-52
2022/12/30 02:26:54;;;;;;;8.38;3.47;;;8.60;99.90;;;;;;5052437;28;20070;-44
2022/12/30 02:30:15;;;;;;;6.90;3.30;;;8.60;99.90;;;;;;5052383;28;20404;-45
2022/12/30 02:33:19;;;;;;;11.50;3.50;;;8.60;99.90;;;;;;5022690;28;20033;-46
2022/12/30 02:36:48;;;;;;;11.95;3.88;;;8.40;99.90;;;;;;5051851;28;20105;-48
2022/12/30 02:39:44;;;;;;;8.25;3.45;;;8.40;99.90;;;;;;5052281;28;20549;-52
2022/12/30 02:45:47;;;;;;;10.45;3.65;;;8.20;99.90;;;;;;5051213;28;19904;-47
2022/12/30 02:48:37;;;;;;;10.25;3.30;;;8.10;99.90;;;;;;5052159;28;20029;-46
2022/12/30 02:54:31;;;;;;;9.48;3.75;;;8.00;99.90;;;;;;5052141;28;20029;-48
2022/12/30 02:57:24;;;;;;;13.73;3.25;;;8.00;99.90;;;;;;5051947;28;20310;-48
2022/12/30 03:04:02;;;;;;;9.65;3.65;;;8.00;99.90;;;;;;5051989;28;20431;-49
2022/12/30 03:07:12;;;;;;;10.90;3.63;;;7.90;99.90;;;;;;4971259;28;20557;-45
2022/12/30 03:14:15;;;;;;;9.75;3.10;;;7.90;99.90;;;;;;5050725;28;20021;-51
2022/12/30 03:17:06;;;;;;;8.07;3.08;;;7.90;99.90;;;;;;5051655;28;20396;-46
2022/12/30 03:19:57;;;;;;;11.23;3.50;;;7.90;99.90;;;;;;5052806;28;20076;-50
2022/12/30 03:28:55;;;;;;;10.82;3.53;;;7.70;99.90;;;;;;5051584;28;20044;-45
2022/12/30 03:31:41;;;;;;;11.15;3.58;;;7.80;99.90;;;;;;5050739;28;20044;-44
2022/12/30 03:34:28;;;;;;;14.93;3.60;;;7.80;99.90;;;;;;5050625;28;20496;-45
2022/12/30 03:37:17;;;;;;;10.20;3.20;;;7.90;99.90;;;;;;5050103;28;20496;-43
2022/12/30 03:40:21;;;;;;;14.30;3.80;;;7.90;99.90;;;;;;5051671;28;20104;-48
2022/12/30 03:43:08;;;;;;;8.70;3.45;;;7.90;99.90;;;;;;5051553;28;20493;-44
2022/12/30 03:45:54;;;;;;;7.50;2.75;;;7.90;99.90;;;;;;5051804;28;20021;-47
2022/12/30 03:48:40;;;;;;;9.80;4.13;;;7.90;99.90;;;;;;5051604;28;20036;-44
2022/12/30 03:51:26;;;;;;;11.73;3.00;;;7.90;99.90;;;;;;5050808;28;20497;-46
2022/12/30 03:54:12;;;;;;;5.18;2.95;;;7.80;99.90;;;;;;5050359;28;20060;-45
2022/12/30 03:56:58;;;;;;;8.43;2.95;;;7.80;99.90;;;;;;5051212;28;20040;-45
2022/12/30 03:59:44;;;;;;;9.35;3.20;;;7.80;99.90;;;;;;5051614;28;20501;-45
2022/12/30 04:02:30;;;;;;;7.43;2.90;;;7.70;99.90;;;;;;5050572;28;20401;-44
2022/12/30 04:05:16;;;;;;;6.00;3.05;;;7.70;99.90;;;;;;5052933;28;20104;-46
2022/12/30 04:08:02;;;;;;;8.15;4.13;;;7.70;99.90;;;;;;5055512;28;20116;-46
2022/12/30 04:10:48;;;;;;;5.43;2.95;;;7.80;99.90;;;;;;5055603;28;20036;-45
2022/12/30 04:13:34;;;;;;;6.70;3.60;;;7.70;99.90;;;;;;5055481;28;20079;-44
2022/12/30 04:16:20;;;;;;;10.75;3.70;;;7.70;99.90;;;;;;5053592;28;20508;-45
2022/12/30 04:19:06;;;;;;;12.18;3.22;;;7.70;99.90;;;;;;5055445;28;20025;-46
2022/12/30 04:21:52;;;;;;;7.25;2.80;;;7.70;99.90;;;;;;5055422;28;20021;-45
2022/12/30 04:24:38;;;;;;;10.38;3.35;;;7.60;99.90;;;;;;5054765;28;20071;-46
2022/12/30 04:27:24;;;;;;;8.70;3.05;;;7.60;99.90;;;;;;5053937;28;20117;-46
2022/12/30 04:30:11;;;;;;;9.45;3.08;;;7.40;99.90;;;;;;5055336;28;20500;-45
2022/12/30 04:32:57;;;;;;;9.32;3.15;;;7.40;99.90;;;;;;5055287;28;20029;-44
2022/12/30 04:35:43;;;;;;;9.70;3.30;;;7.30;99.90;;;;;;5055484;28;20017;-47
2022/12/30 04:38:29;;;;;;;7.10;2.53;;;7.20;99.90;;;;;;5054927;28;20033;-47
2022/12/30 04:41:17;;;;;;;7.78;2.75;;;7.20;99.90;;;;;;5062158;28;20088;-50
2022/12/30 04:44:04;;;;;;;8.90;3.20;;;7.10;99.90;;;;;;5061440;28;20017;-49
2022/12/30 04:46:50;;;;;;;6.78;2.83;;;7.10;99.90;;;;;;5062393;28;20092;-54
2022/12/30 04:49:36;;;;;;;6.05;2.45;;;7.10;99.90;;;;;;5060393;28;20410;-52
2022/12/30 04:52:22;;;;;;;5.88;2.60;;;7.10;99.90;;;;;;5055475;28;20388;-45
2022/12/30 04:55:08;;;;;;;10.68;4.10;;;7.20;99.90;;;;;;5054854;28;20021;-46
2022/12/30 04:57:55;;;;;;;10.63;3.67;;;7.20;99.90;;;;;;5054474;28;20061;-46
2022/12/30 05:00:41;;;;;;;10.27;3.47;;;7.20;99.90;;;;;;5054648;28;20025;-52
2022/12/30 05:03:26;;;;;;;7.90;3.83;;;7.30;99.90;;;;;;5053793;28;20052;-46
2022/12/30 05:06:12;;;;;;;8.85;3.72;;;7.30;99.90;;;;;;5054161;28;20504;-45
2022/12/30 05:08:58;;;;;;;8.27;2.63;;;7.40;99.90;;;;;;5054343;28;20425;-49
2022/12/30 05:11:44;;;;;;;14.57;4.45;;;7.40;99.90;;;;;;5054293;28;20496;-47
2022/12/30 05:14:30;;;;;;;9.40;3.28;;;7.50;99.90;;;;;;5053178;28;20021;-44
2022/12/30 05:17:16;;;;;;;11.45;3.30;;;7.40;99.90;;;;;;5053384;28;20032;-46
2022/12/30 05:20:03;;;;;;;11.05;3.75;;;7.40;99.90;;;;;;5054529;28;20107;-44
2022/12/30 05:22:49;;;;;;;8.73;2.78;;;7.30;99.90;;;;;;5053162;28;20450;-45
2022/12/30 05:28:40;;;;;;;10.98;3.38;;;7.30;99.90;;;;;;5054073;28;20091;-44
2022/12/30 05:31:26;;;;;;;5.20;2.60;;;7.20;99.90;;;;;;5053990;28;20392;-47
2022/12/30 05:34:12;;;;;;;7.53;2.92;;;7.10;99.90;;;;;;5054146;28;20029;-51
2022/12/30 05:36:58;;;;;;;6.63;2.90;;;7.10;99.90;;;;;;5053326;28;20420;-50
2022/12/30 05:39:43;;;;;;;9.13;2.90;;;7.20;99.90;;;;;;5053674;28;20033;-52
2022/12/30 05:42:29;;;;;;;7.55;2.92;;;7.20;99.90;;;;;;5054167;28;20347;-44
2022/12/30 05:45:15;;;;;;;15.63;4.15;;;7.10;99.90;;;;;;5053951;28;20056;-45
2022/12/30 05:48:02;;;;;;;4.60;2.80;;;7.20;99.90;;;;;;5054003;28;20032;-47
2022/12/30 05:50:49;;;;;;;9.43;3.20;;;7.20;99.90;;;;;;5053485;28;20030;-46
2022/12/30 05:53:35;;;;;;;12.57;3.75;;;7.20;99.90;;;;;;5053749;28;20033;-45
2022/12/30 05:56:21;;;;;;;7.93;3.17;;;7.10;99.90;;;;;;5053439;28;20382;-46
2022/12/30 05:59:09;;;;;;;9.60;2.75;;;7.10;99.90;;;;;;5053343;28;20074;-47
2022/12/30 06:01:55;;;;;;;5.65;3.13;;;7.20;99.90;;;;;;5053518;28;20036;-47
2022/12/30 06:04:41;;;;;;;9.02;2.85;;;7.10;99.90;;;;;;5053047;28;20112;-45
2022/12/30 06:07:27;;;;;;;9.93;3.55;;;7.10;99.90;;;;;;5053046;28;20505;-45
2022/12/30 06:10:14;;;;;;;11.80;3.08;;;7.10;99.90;;;;;;5053256;28;20075;-48
2022/12/30 06:12:59;;;;;;;8.75;3.50;;;7.20;99.90;;;;;;5053091;28;20021;-46
2022/12/30 06:15:45;;;;;;;11.40;2.75;;;7.20;99.90;;;;;;5053427;28;20056;-50
2022/12/30 06:18:32;;;;;;;7.40;3.45;;;7.20;99.90;;;;;;5053245;28;20146;-45
2022/12/30 06:21:18;;;;;;;8.40;3.25;;;7.20;99.90;;;;;;5051791;28;20032;-47
2022/12/30 06:24:04;;;;;;;5.70;2.50;;;7.20;99.90;;;;;;5053117;28;20459;-46
2022/12/30 06:26:50;;;;;;;8.10;3.28;;;7.30;99.90;;;;;;5052118;28;20079;-46
2022/12/30 06:29:36;;;;;;;9.77;2.95;;;7.30;99.90;;;;;;5051195;28;20040;-47
2022/12/30 06:32:22;;;;;;;7.63;3.33;;;7.30;99.90;;;;;;5052708;28;20029;-47
2022/12/30 06:35:09;;;;;;;5.97;2.67;;;7.30;99.90;;;;;;5051531;28;20382;-46
2022/12/30 06:37:55;;;;;;;11.98;2.78;;;7.30;99.90;;;;;;5052463;28;20108;-45
2022/12/30 06:40:41;;;;;;;9.15;3.17;;;7.30;99.90;;;;;;5052835;28;20036;-44
2022/12/30 06:43:27;;;;;;;6.55;2.88;;;7.30;99.90;;;;;;5052882;28;20032;-44
2022/12/30 06:46:13;;;;;;;10.95;3.60;;;7.30;99.90;;;;;;5052302;28;20024;-46
2022/12/30 06:48:59;;;;;;;9.35;3.53;;;7.30;99.90;;;;;;5051319;28;20467;-45
2022/12/30 06:51:45;;;;;;;9.18;3.13;;;7.30;99.90;;;;;;5052384;28;20082;-45
2022/12/30 06:54:31;;;;;;;7.70;3.83;;;7.20;99.90;;;;;;5052262;28;20400;-45
2022/12/30 06:57:17;;;;;;;6.82;2.92;;;7.10;99.90;;;;;;5052259;28;20576;-44
2022/12/30 07:00:06;;;;;;;10.48;3.20;;;7.10;99.90;;;;;;5052367;28;20507;-45
2022/12/30 07:02:52;;;;;;;9.95;2.90;;;7.10;99.90;;;;;;5052342;28;20108;-45
2022/12/30 07:05:38;;;;;;;6.30;2.60;;;7.10;99.90;;;;;;5051131;28;20040;-46
2022/12/30 07:08:24;;;;;;;6.93;2.90;;;7.00;99.90;;;;;;5052141;28;20029;-45
2022/12/30 07:11:10;;;;;;;11.48;3.20;;;7.00;99.90;;;;;;5052124;28;20029;-44
2022/12/30 07:13:56;;;;;;;9.80;3.30;;;7.10;99.90;;;;;;5051607;28;20039;-45
2022/12/30 07:16:41;;;;;;;8.93;3.78;;;7.10;99.90;;;;;;5052422;28;20033;-46
2022/12/30 07:19:27;;;;;;;7.43;3.50;;;7.00;99.90;;;;;;5050739;28;20392;-46
2022/12/30 07:22:15;;;;;;;8.75;3.70;;;7.00;99.90;;;;;;5052189;28;20115;-45
2022/12/30 07:25:01;;;;;;;11.30;3.78;;;7.00;99.90;;;;;;5051987;28;20036;-46
2022/12/30 07:27:47;;;;;;;13.38;3.97;;;7.00;99.90;;;;;;5051587;28;20029;-47
2022/12/30 07:30:33;;;;;;;11.90;4.18;;;7.10;99.90;;;;;;5052155;28;20036;-47
2022/12/30 07:33:19;;;;;;;9.77;4.00;;;7.10;99.90;;;;;;5052314;28;20037;-50
2022/12/30 07:36:05;;;;;;;8.52;3.17;;;7.00;99.90;;;;;;5051893;28;20033;-53
2022/12/30 07:38:51;;;;;;;9.27;3.20;;;7.00;99.90;;;;;;5050987;28;20511;-48
2022/12/30 07:41:37;;;;;;;8.10;3.13;;;7.00;99.90;;;;;;5051239;28;20031;-50
2022/12/30 07:44:24;;;;;;;8.05;3.72;;;7.00;99.90;;;;;;5056117;28;20028;-52
2022/12/30 07:47:10;;;;;;;10.27;3.03;;;7.00;99.90;;;;;;5056305;28;20032;-48
2022/12/30 07:49:55;;;;;;;12.23;3.40;;;6.90;99.90;;;;;;5056525;28;20059;-50
2022/12/30 07:52:41;;;;;;;11.70;3.47;;;6.90;99.90;;;;;;5055796;28;20029;-51
2022/12/30 07:55:27;;;;;;;7.75;4.03;;;6.90;99.90;;;;;;5055213;28;20327;-45
2022/12/30 07:58:13;;;;;;;13.55;4.10;;;7.00;99.90;;;;;;5051482;28;20025;-44
2022/12/30 08:01:06;;;;;;;7.18;2.92;;;6.90;99.90;;;;;;5052020;28;20481;-46
2022/12/30 08:03:52;;;;;;;11.32;3.55;;;6.90;99.90;;;;;;5051844;28;20040;-48
2022/12/30 08:06:38;;;;;;;7.13;4.15;;;6.90;99.90;;;;;;5050501;28;20025;-52
2022/12/30 08:09:24;;;;;;;7.43;3.17;;;7.00;99.90;;;;;;5051648;28;20611;-45
2022/12/30 08:12:10;;;;;;;8.13;3.22;;;7.00;99.90;;;;;;5051363;28;20033;-45
2022/12/30 08:14:55;;;;;;;11.85;3.95;;;7.00;99.90;;;;;;5051605;28;20029;-45
2022/12/30 08:17:42;;;;;;;9.23;3.83;;;7.10;99.90;;;;;;5050969;28;20059;-47
2022/12/30 08:20:27;;;;;;;14.70;3.58;;;7.10;99.90;;;;;;5051487;28;20493;-45
2022/12/30 08:23:14;;;;;;;14.45;4.50;;;7.20;99.90;;;;;;5051472;28;20029;-47
2022/12/30 08:26:05;;;;;;;7.22;3.00;;;7.30;99.90;;;;;;5051528;28;20029;-48
2022/12/30 08:28:51;;;;;;;7.50;3.03;;;7.30;99.90;;;;;;5051127;28;20511;-47
2022/12/30 08:31:37;;;;;;;14.75;3.28;;;7.30;99.90;;;;;;5051937;28;20546;-48
2022/12/30 08:34:23;;;;;;;6.80;2.90;;;7.40;99.90;;;;;;5049969;28;20028;-49
2022/12/30 08:37:09;;;;;;;9.63;3.08;;;7.40;99.90;;;;;;5050760;28;20068;-48
2022/12/30 08:39:55;;;;;;;10.52;3.17;;;7.40;99.90;;;;;;5051290;28;20124;-52
2022/12/30 08:42:42;;;;;;;14.05;3.20;;;7.40;99.90;;;;;;5051114;28;20025;-45
2022/12/30 08:45:28;;;;;;;11.90;3.53;;;7.40;99.90;;;;;;5051420;28;20029;-46
2022/12/30 08:48:14;;;;;;;10.13;3.22;;;7.40;99.90;;;;;;5050633;28;20029;-47
2022/12/30 08:51:00;;;;;;;12.18;3.80;;;7.50;99.90;;;;;;5050963;28;20416;-50
2022/12/30 08:53:46;;;;;;;20.77;4.30;;;7.60;99.90;;;;;;5054832;28;20021;-51
2022/12/30 08:56:34;;;;;;;15.93;5.90;;;7.60;99.90;;;;;;5054834;28;20025;-49
2022/12/30 08:59:20;;;;;;;9.52;4.00;;;7.70;99.90;;;;;;5054406;28;20029;-47
2022/12/30 09:02:10;;;;;;;12.77;3.92;;;7.80;99.90;;;;;;5054188;28;20107;-45
2022/12/30 09:04:56;;;;;;;9.55;4.10;;;7.90;99.90;;;;;;5053382;28;20105;-46
2022/12/30 09:07:42;;;;;;;10.95;4.43;;;8.00;99.90;;;;;;5054466;28;20021;-53
2022/12/30 09:10:28;;;;;;;10.02;3.78;;;8.10;99.90;;;;;;5054179;28;20029;-54
2022/12/30 09:13:14;;;;;;;16.50;5.13;;;8.20;99.90;;;;;;5054496;28;20025;-51
2022/12/30 09:16:00;;;;;;;9.40;4.25;;;8.20;99.90;;;;;;5053307;28;20104;-46
2022/12/30 09:18:45;;;;;;;8.93;3.63;;;8.30;99.90;;;;;;5054920;28;20040;-46
2022/12/30 09:21:32;;;;;;;12.13;3.80;;;8.30;99.90;;;;;;5054422;28;20032;-44
2022/12/30 09:24:18;;;;;;;9.38;4.45;;;8.30;99.90;;;;;;5054268;28;20485;-47
2022/12/30 09:27:04;;;;;;;13.93;4.38;;;8.30;99.90;;;;;;5053006;28;20039;-45
2022/12/30 09:29:50;;;;;;;6.28;3.35;;;8.30;99.90;;;;;;5054351;28;20064;-45
2022/12/30 09:32:35;;;;;;;7.15;3.50;;;8.40;99.90;;;;;;5054386;28;20063;-49
2022/12/30 09:35:21;;;;;;;11.73;3.90;;;8.50;99.90;;;;;;5053708;28;20071;-43
2022/12/30 09:38:07;;;;;;;12.82;4.88;;;8.50;99.90;;;;;;5052452;28;20025;-46
2022/12/30 09:41:07;;;;;;;14.02;4.10;;;8.60;99.90;;;;;;5053835;28;20017;-47
2022/12/30 09:44:12;;;;;;;10.90;4.28;;;8.70;99.90;;;;;;5053809;28;20485;-45
2022/12/30 09:47:07;;;;;;;9.68;3.80;;;8.70;99.90;;;;;;5053496;28;20017;-44
2022/12/30 09:50:18;;;;;;;12.18;3.95;;;8.80;99.90;;;;;;5053685;28;20021;-49
2022/12/30 09:53:17;;;;;;;12.70;3.65;;;8.80;99.90;;;;;;5052413;28;20029;-48
2022/12/30 09:56:19;;;;;;;9.93;4.22;;;8.80;99.90;;;;;;5053474;28;20139;-48
2022/12/30 09:59:19;;;;;;;8.82;4.10;;;8.80;99.90;;;;;;5053978;28;20032;-48
2022/12/30 10:02:20;;;;;;;7.45;3.40;;;8.80;99.90;;;;;;5053309;28;20497;-48
2022/12/30 10:05:11;;;;;;;15.27;4.22;;;8.80;99.90;;;;;;5051967;28;20035;-47
2022/12/30 10:08:12;;;;;;;12.70;3.42;;;8.90;99.90;;;;;;5053144;28;20025;-53
2022/12/30 10:10:58;;;;;;;9.25;3.50;;;9.00;99.90;;;;;;5053285;28;20029;-44
2022/12/30 10:13:54;;;;;;;25.80;10.60;;;9.10;99.90;;;;;;5053162;28;20032;-55
2022/12/30 10:17:04;;;;;;;10.43;3.50;;;9.20;99.90;;;;;;5052404;28;20412;-51
2022/12/30 10:20:11;;;;;;;7.43;3.35;;;9.20;99.90;;;;;;5053228;28;20524;-46
2022/12/30 10:23:17;;;;;;;12.55;4.75;;;9.30;99.90;;;;;;5052900;28;20029;-47
2022/12/30 10:26:14;;;;;;;12.38;3.60;;;9.30;99.90;;;;;;5052972;28;20021;-46
2022/12/30 10:29:08;;;;;;;12.63;4.47;;;9.30;99.90;;;;;;5051627;28;20104;-46
2022/12/30 10:31:54;;;;;;;7.07;4.05;;;9.30;99.90;;;;;;5051706;28;20116;-47
2022/12/30 10:34:42;;;;;;;11.73;4.13;;;9.40;99.90;;;;;;5051596;28;20079;-51
2022/12/30 10:37:32;;;;;;;10.82;4.05;;;9.50;99.90;;;;;;5053618;28;20029;-45
2022/12/30 10:40:19;;;;;;;10.57;3.63;;;9.40;99.90;;;;;;5054888;28;20032;-48
2022/12/30 10:43:19;;;;;;;10.65;4.70;;;9.40;99.90;;;;;;5054362;28;20029;-48
2022/12/30 10:46:35;;;;;;;10.15;3.88;;;9.50;99.90;;;;;;5053288;28;20017;-49
2022/12/30 10:49:31;;;;;;;7.55;2.88;;;9.50;99.90;;;;;;5051667;28;20021;-47
2022/12/30 10:52:18;;;;;;;10.57;3.67;;;9.50;99.90;;;;;;5054318;28;20116;-52
2022/12/30 10:55:24;;;;;;;8.82;3.05;;;9.60;99.90;;;;;;5061775;28;20029;-50
2022/12/30 10:58:11;;;;;;;;;;;9.50;99.90;;;;;;5069583;28;20064;-49
2022/12/30 11:00:59;;;;;;;9.18;3.47;;;9.60;99.90;;;;;;5081445;28;19958;-55
2022/12/30 11:03:56;;;;;;;7.60;3.60;;;9.70;99.90;;;;;;5080991;28;20048;-51
2022/12/30 11:06:42;;;;;;;8.68;2.92;;;9.70;99.60;;;;;;5073538;28;20021;-45
2022/12/30 11:09:28;;;;;;;11.65;3.25;;;9.70;99.60;;;;;;5072971;28;20032;-48
2022/12/30 11:15:50;;;;;;;13.30;4.05;;;9.60;99.60;;;;;;5072741;28;20032;-44
2022/12/30 11:18:36;;;;;;;8.05;3.13;;;9.60;99.60;;;;;;5071770;28;20086;-47
2022/12/30 11:21:31;;;;;;;8.43;3.40;;;9.70;99.50;;;;;;5072827;28;20017;-47
2022/12/30 11:24:17;;;;;;;8.23;3.40;;;9.60;99.60;;;;;;5071805;28;20024;-45
2022/12/30 11:27:04;;;;;;;8.18;3.05;;;9.60;99.60;;;;;;5070437;28;20105;-45
2022/12/30 11:29:50;;;;;;;7.10;2.92;;;9.60;99.70;;;;;;5071661;28;20499;-54
2022/12/30 11:32:43;;;;;;;7.00;3.22;;;9.80;99.70;;;;;;5071660;28;20037;-51
2022/12/30 11:35:35;;;;;;;9.35;2.70;;;9.80;99.50;;;;;;5072377;28;20091;-45
2022/12/30 11:38:29;;;;;;;7.40;2.85;;;9.80;99.20;;;;;;5070394;28;20017;-45
2022/12/30 11:41:17;;;;;;;6.72;2.58;;;9.80;99.30;;;;;;5070838;28;20032;-45
2022/12/30 11:44:03;;;;;;;6.90;2.95;;;9.80;99.30;;;;;;5072255;28;20024;-45
2022/12/30 11:46:55;;;;;;;8.55;3.00;;;9.90;99.40;;;;;;5072237;28;20400;-46
2022/12/30 11:49:49;;;;;;;10.18;3.15;;;9.90;99.50;;;;;;5072513;28;20029;-46
2022/12/30 11:52:35;;;;;;;7.20;3.35;;;10.00;99.30;;;;;;5070607;28;20115;-45
2022/12/30 11:55:24;;;;;;;19.15;4.40;;;10.00;99.20;;;;;;5072361;28;20028;-47
2022/12/30 11:58:12;;;;;;;11.13;3.33;;;9.90;99.40;;;;;;5072182;28;20033;-44
2022/12/30 12:01:06;;;;;;;10.15;3.63;;;9.80;99.50;;;;;;5072474;28;20033;-45
2022/12/30 12:03:57;;;;;;;10.40;4.60;;;9.80;99.60;;;;;;5071035;28;20025;-47
2022/12/30 12:06:51;;;;;;;8.07;3.50;;;9.90;99.60;;;;;;5071430;28;20084;-44
2022/12/30 12:09:42;;;;;;;8.20;3.38;;;10.00;99.50;;;;;;5071825;28;20029;-48
2022/12/30 12:12:38;;;;;;;8.32;3.17;;;10.10;99.10;;;;;;5071961;28;20039;-44
2022/12/30 12:15:46;;;;;;;9.90;2.72;;;10.00;99.30;;;;;;5071832;28;20025;-47
2022/12/30 12:18:39;;;;;;;6.82;3.30;;;10.10;99.10;;;;;;5071114;28;20024;-47
2022/12/30 12:21:27;;;;;;;9.27;3.05;;;10.10;99.20;;;;;;5071890;28;20119;-49
2022/12/30 12:24:37;;;;;;;8.77;3.70;;;10.10;99.00;;;;;;5069716;28;20052;-45
2022/12/30 12:27:25;;;;;;;9.40;3.95;;;10.10;99.10;;;;;;5074066;28;20032;-47
2022/12/30 12:30:12;;;;;;;9.32;3.45;;;10.20;98.90;;;;;;5075232;28;20091;-52
2022/12/30 12:33:27;;;;;;;10.43;3.10;;;10.10;99.00;;;;;;5076030;28;20035;-45
2022/12/30 12:36:23;;;;;;;8.43;3.17;;;10.20;98.90;;;;;;5075960;28;20057;-50
2022/12/30 12:39:16;;;;;;;;;;;10.10;99.30;;;;;;5075309;28;20027;-45
2022/12/30 12:42:10;;;;;;;10.75;3.83;;;10.10;99.40;;;;;;5075914;28;19958;-50
2022/12/30 12:45:15;;;;;;;14.73;6.47;;;10.20;99.30;;;;;;5073981;28;20017;-49
2022/12/30 12:48:14;;;;;;;8.50;3.63;;;10.10;99.40;;;;;;5073478;28;20251;-46
2022/12/30 12:51:25;;;;;;;7.57;3.30;;;10.10;99.60;;;;;;5073994;28;20047;-48
2022/12/30 12:54:23;;;;;;;9.02;3.50;;;10.20;99.50;;;;;;5073697;28;20483;-46
2022/12/30 12:57:15;;;;;;;11.15;3.75;;;10.20;99.50;;;;;;5074961;28;20116;-52
2022/12/30 13:00:51;;;;;;;20.38;4.68;;;10.20;99.40;;;;;;5075509;28;20423;-51
2022/12/30 13:03:40;;;;;;;8.10;3.58;;;10.10;99.60;;;;;;5050426;28;20086;-46
2022/12/30 13:06:42;;;;;;;9.32;3.90;;;10.00;99.60;;;;;;5074795;28;20067;-49
2022/12/30 13:09:37;;;;;;;7.72;3.25;;;9.90;99.80;;;;;;5074903;28;20415;-46
2022/12/30 13:12:46;;;;;;;7.03;3.28;;;10.00;99.70;;;;;;5074451;28;20021;-50
2022/12/30 13:15:38;;;;;;;11.52;4.47;;;9.80;99.80;;;;;;5074884;28;20458;-46
2022/12/30 13:18:27;;;;;;;16.48;4.13;;;9.80;99.90;;;;;;5074496;28;20404;-46
2022/12/30 13:21:19;;;;;;;10.25;3.85;;;9.80;99.90;;;;;;5073571;28;20097;-49
2022/12/30 13:24:07;;;;;;;8.35;4.00;;;9.70;99.90;;;;;;5074319;28;20552;-50
2022/12/30 13:26:53;;;;;;;7.50;3.80;;;9.60;99.90;;;;;;5074885;28;20060;-45
2022/12/30 13:29:40;;;;;;;7.78;4.20;;;9.60;99.90;;;;;;5072888;28;20047;-54
2022/12/30 13:33:04;;;;;;;11.88;3.92;;;9.60;99.90;;;;;;5074865;28;20099;-45
2022/12/30 13:36:26;;;;;;;7.50;3.78;;;9.60;99.90;;;;;;5072892;28;20557;-49
2022/12/30 13:39:42;;;;;;;9.77;4.43;;;9.50;99.90;;;;;;5072916;28;20050;-51
2022/12/30 13:42:49;;;;;;;9.43;4.20;;;9.50;99.90;;;;;;5074526;28;20023;-47
2022/12/30 13:45:43;;;;;;;8.45;3.15;;;9.40;99.90;;;;;;5072842;28;20024;-45
2022/12/30 13:48:33;;;;;;;9.27;3.65;;;9.40;99.90;;;;;;5073659;28;20488;-49
2022/12/30 13:51:22;;;;;;;10.07;4.38;;;9.40;99.90;;;;;;5072709;28;20442;-49
2022/12/30 13:54:14;;;;;;;11.85;4.72;;;9.40;99.90;;;;;;5073912;28;20036;-50
2022/12/30 13:57:02;;;;;;;9.27;3.58;;;9.40;99.90;;;;;;5073327;28;20056;-47
2022/12/30 14:00:26;;;;;;;9.32;3.90;;;9.50;99.90;;;;;;5073777;28;20087;-48
2022/12/30 14:03:24;;;;;;;8.88;3.70;;;9.50;99.90;;;;;;5073039;28;20030;-46
2022/12/30 14:06:25;;;;;;;11.32;3.70;;;9.50;99.90;;;;;;5073569;28;20622;-48
2022/12/30 14:09:24;;;;;;;9.02;5.10;;;9.50;99.90;;;;;;5073679;28;20028;-49
2022/12/30 14:12:11;;;;;;;10.13;3.60;;;9.50;99.90;;;;;;5073883;28;20024;-46
2022/12/30 14:15:00;;;;;;;8.63;4.10;;;9.50;99.90;;;;;;5072350;28;20495;-49
2022/12/30 14:17:46;;;;;;;7.50;4.20;;;9.50;99.90;;;;;;5073596;28;20035;-45
2022/12/30 14:20:34;;;;;;;9.70;4.53;;;9.40;99.90;;;;;;5073612;28;20028;-45
2022/12/30 14:23:57;;;;;;;12.57;4.78;;;9.40;99.90;;;;;;5071654;28;20029;-45
2022/12/30 14:26:43;;;;;;;12.38;4.30;;;9.30;99.90;;;;;;5072280;28;20037;-47
2022/12/30 14:29:31;;;;;;;10.63;4.65;;;9.40;99.90;;;;;;5073440;28;20036;-49
2022/12/30 14:32:25;;;;;;;6.88;3.58;;;9.30;99.90;;;;;;5072972;28;20025;-50
2022/12/30 14:35:17;;;;;;;7.88;4.15;;;9.20;99.90;;;;;;5072619;28;20111;-50
2022/12/30 14:38:24;;;;;;;11.70;3.70;;;9.10;99.90;;;;;;5072762;28;20021;-47
2022/12/30 14:41:20;;;;;;;11.55;4.45;;;9.10;99.90;;;;;;5073152;28;20020;-46
2022/12/30 14:44:07;;;;;;;;;;;9.10;99.90;;;;;;5073999;28;20111;-48
2022/12/30 14:46:55;;;;;;;6.78;3.90;;;9.00;99.90;;;;;;5073735;28;19904;-48
2022/12/30 14:49:56;;;;;;;10.25;3.80;;;9.00;99.90;;;;;;5072279;28;20033;-47
2022/12/30 14:52:53;;;;;;;8.43;3.83;;;9.00;99.90;;;;;;5072477;28;20399;-47
2022/12/30 14:55:46;;;;;;;12.65;4.20;;;9.00;99.90;;;;;;5072686;28;20020;-48
2022/12/30 14:58:33;;;;;;;10.98;4.43;;;9.00;99.90;;;;;;5072671;28;20504;-45
2022/12/30 15:01:21;;;;;;;8.32;4.05;;;8.90;99.90;;;;;;5072895;28;20496;-46
2022/12/30 15:04:15;;;;;;;7.50;3.58;;;8.90;99.90;;;;;;5072632;28;20021;-44
2022/12/30 15:07:01;;;;;;;18.10;11.52;;;8.90;99.90;;;;;;5072455;28;20016;-46
2022/12/30 15:09:49;;;;;;;9.20;3.90;;;8.80;99.90;;;;;;5070472;28;20032;-46
2022/12/30 15:12:34;;;;;;;10.70;4.47;;;8.70;99.90;;;;;;5072220;28;20043;-47
2022/12/30 15:15:27;;;;;;;5.93;3.60;;;8.70;99.90;;;;;;5072640;28;20384;-47
2022/12/30 15:18:35;;;;;;;11.07;3.60;;;8.60;99.90;;;;;;5070784;28;20512;-46
2022/12/30 15:21:23;;;;;;;9.02;3.60;;;8.70;99.90;;;;;;5072769;28;20418;-49
2022/12/30 15:24:13;;;;;;;13.55;4.00;;;8.70;99.90;;;;;;5070802;28;20024;-47
2022/12/30 15:27:00;;;;;;;7.80;3.85;;;8.70;99.90;;;;;;5070679;28;20492;-52
2022/12/30 15:29:47;;;;;;;6.22;3.35;;;8.70;99.90;;;;;;5072354;28;20075;-46
2022/12/30 15:32:36;;;;;;;9.52;4.00;;;8.70;99.90;;;;;;5072696;28;20519;-48
2022/12/30 15:35:29;;;;;;;5.45;3.50;;;8.70;99.90;;;;;;5072249;28;20024;-48
2022/12/30 15:38:21;;;;;;;7.00;3.72;;;8.70;99.90;;;;;;5072131;28;20027;-52
2022/12/30 15:41:22;;;;;;;8.98;4.03;;;8.70;99.90;;;;;;5071867;28;20025;-52
2022/12/30 15:44:15;;;;;;;8.68;4.25;;;8.70;99.90;;;;;;5072673;28;20341;-46
2022/12/30 15:47:01;;;;;;;8.15;3.50;;;8.70;99.90;;;;;;5072065;28;20012;-50
2022/12/30 15:49:52;;;;;;;9.57;4.97;;;8.70;99.90;;;;;;5072366;28;20029;-52